Time;durP1;ratioP1;P1;durP2;ratioP2;P2;SDS_P1;SDS_P2;PMS_P1;PMS_P2;Temp;Humidity;BMP_temperature;BMP_pressure;BME280_temperature;BME280_humidity;BME280_pressure;Samples;Min_cycle;Max_cycle;Signal;HPM_P1;HPM_P2
2022/04/03 00:01:19;;;;;;;1.27;1.13;;;;;;;;;;5075509;28;20263;-65
2022/04/03 00:03:46;;;;;;;1.70;1.30;;;;;;;;;;5075632;28;20264;-65
2022/04/03 00:06:12;;;;;;;1.50;1.30;;;;;;;;;;5076094;28;20208;-65
2022/04/03 00:08:40;;;;;;;1.25;1.13;;;;;;;;;;5076589;28;20231;-65
2022/04/03 00:11:06;;;;;;;2.88;1.33;;;;;;;;;;5075691;28;20200;-65
2022/04/03 00:13:33;;;;;;;1.50;1.35;;;;;;;;;;5076240;28;20181;-65
2022/04/03 00:15:59;;;;;;;1.30;1.20;;;;;;;;;;5076415;28;20276;-65
2022/04/03 00:18:27;;;;;;;1.30;1.20;;;;;;;;;;5076353;28;20185;-65
2022/04/03 00:20:54;;;;;;;1.27;1.17;;;;;;;;;;5075069;28;20671;-65
2022/04/03 00:23:23;;;;;;;2.25;1.40;;;;;;;;;;5076204;28;20189;-65
2022/04/03 00:25:50;;;;;;;1.40;1.30;;;;;;;;;;5076003;28;20181;-65
2022/04/03 00:28:16;;;;;;;1.48;1.38;;;;;;;;;;5075346;28;20197;-65
2022/04/03 00:30:43;;;;;;;1.40;1.30;;;;;;;;;;5075291;28;20208;-65
2022/04/03 00:33:11;;;;;;;1.50;1.40;;;;;;;;;;5075488;28;20758;-65
2022/04/03 00:35:39;;;;;;;1.55;1.45;;;;;;;;;;5075482;28;20247;-65
2022/04/03 00:38:05;;;;;;;1.55;1.45;;;;;;;;;;5074798;28;20235;-65
2022/04/03 00:40:32;;;;;;;1.90;1.80;;;;;;;;;;5075070;28;20221;-65
2022/04/03 00:42:59;;;;;;;2.03;1.63;;;;;;;;;;5075063;28;20201;-65
2022/04/03 00:45:26;;;;;;;4.35;1.90;;;;;;;;;;5075087;28;20254;-65
2022/04/03 00:47:53;;;;;;;3.15;2.03;;;;;;;;;;5074815;28;20201;-65
2022/04/03 00:50:20;;;;;;;3.30;2.00;;;;;;;;;;5076184;28;20262;-65
2022/04/03 00:52:48;;;;;;;3.90;2.10;;;;;;;;;;5074807;28;20257;-65
2022/04/03 00:55:15;;;;;;;1.98;1.80;;;;;;;;;;5074812;28;20193;-64
2022/04/03 00:57:43;;;;;;;3.92;2.20;;;;;;;;;;5074770;28;20201;-64
2022/04/03 01:00:12;;;;;;;3.72;2.22;;;;;;;;;;5074886;28;20237;-65
2022/04/03 01:02:39;;;;;;;2.67;2.10;;;;;;;;;;5075627;28;20189;-65
2022/04/03 01:05:07;;;;;;;3.90;2.00;;;;;;;;;;5074676;28;20205;-65
2022/04/03 01:07:34;;;;;;;1.75;1.50;;;;;;;;;;5075109;28;20185;-65
2022/04/03 01:10:02;;;;;;;2.08;1.40;;;;;;;;;;5075341;28;20189;-65
2022/04/03 01:12:28;;;;;;;1.90;1.60;;;;;;;;;;5075040;28;20224;-65
2022/04/03 01:14:55;;;;;;;2.17;1.60;;;;;;;;;;5075185;28;20257;-65
2022/04/03 01:17:22;;;;;;;1.80;1.70;;;;;;;;;;5075080;28;20231;-65
2022/04/03 01:19:48;;;;;;;2.90;1.80;;;;;;;;;;5074344;28;20243;-65
2022/04/03 01:22:15;;;;;;;2.20;1.40;;;;;;;;;;5075001;28;20200;-65
2022/04/03 01:24:43;;;;;;;2.97;1.65;;;;;;;;;;5074388;28;20250;-65
2022/04/03 01:27:11;;;;;;;3.03;1.65;;;;;;;;;;5074995;28;20323;-65
2022/04/03 01:29:38;;;;;;;1.88;1.35;;;;;;;;;;5075435;28;20185;-65
2022/04/03 01:32:05;;;;;;;1.50;1.40;;;;;;;;;;5074286;28;20537;-65
2022/04/03 01:34:31;;;;;;;1.73;1.30;;;;;;;;;;5074524;28;20197;-65
2022/04/03 01:36:58;;;;;;;1.50;1.40;;;;;;;;;;5073606;28;20335;-65
2022/04/03 01:39:25;;;;;;;1.95;1.23;;;;;;;;;;5075260;28;20242;-65
2022/04/03 01:41:51;;;;;;;1.48;1.33;;;;;;;;;;5074022;28;20212;-65
2022/04/03 01:44:21;;;;;;;1.55;1.42;;;;;;;;;;5074827;28;20233;-65
2022/04/03 01:46:48;;;;;;;1.77;1.30;;;;;;;;;;5075124;28;20510;-65
2022/04/03 01:49:14;;;;;;;2.67;1.33;;;;;;;;;;5075086;28;20217;-65
2022/04/03 01:51:41;;;;;;;2.50;1.42;;;;;;;;;;5073772;28;20284;-65
2022/04/03 01:54:08;;;;;;;1.50;1.40;;;;;;;;;;5074094;28;20231;-65
2022/04/03 01:56:34;;;;;;;1.52;1.27;;;;;;;;;;5074986;28;20212;-65
2022/04/03 01:59:01;;;;;;;2.53;1.38;;;;;;;;;;5074949;28;20208;-65
2022/04/03 02:01:29;;;;;;;1.75;1.30;;;;;;;;;;5074033;28;20232;-65
2022/04/03 02:03:56;;;;;;;1.33;1.23;;;;;;;;;;5073703;28;20212;-65
2022/04/03 02:06:23;;;;;;;1.90;1.42;;;;;;;;;;5074892;28;20262;-65
2022/04/03 02:08:49;;;;;;;2.03;1.23;;;;;;;;;;5075025;28;20185;-65
2022/04/03 02:11:16;;;;;;;1.67;1.40;;;;;;;;;;5074965;28;20189;-65
2022/04/03 02:13:43;;;;;;;3.33;1.50;;;;;;;;;;5074555;28;20217;-65
2022/04/03 02:16:10;;;;;;;2.25;1.48;;;;;;;;;;5074560;28;20597;-65
2022/04/03 02:18:38;;;;;;;1.33;1.23;;;;;;;;;;5076390;28;20197;-65
2022/04/03 02:21:05;;;;;;;1.63;1.52;;;;;;;;;;5077919;28;20255;-65
2022/04/03 02:23:31;;;;;;;1.70;1.33;;;;;;;;;;5077705;28;20255;-65
2022/04/03 02:25:58;;;;;;;2.08;1.40;;;;;;;;;;5077309;28;20211;-65
2022/04/03 02:28:24;;;;;;;2.38;1.20;;;;;;;;;;5078141;28;20207;-65
2022/04/03 02:30:51;;;;;;;1.85;1.50;;;;;;;;;;5078435;28;20245;-65
2022/04/03 02:33:18;;;;;;;1.73;1.33;;;;;;;;;;5078165;28;20280;-65
2022/04/03 02:35:46;;;;;;;2.22;1.40;;;;;;;;;;5077078;28;20237;-65
2022/04/03 02:38:15;;;;;;;1.73;1.40;;;;;;;;;;5077062;28;20614;-65
2022/04/03 02:40:43;;;;;;;2.08;1.63;;;;;;;;;;5078127;28;20243;-65
2022/04/03 02:43:10;;;;;;;1.50;1.40;;;;;;;;;;5076921;28;20295;-65
2022/04/03 02:45:36;;;;;;;2.17;1.42;;;;;;;;;;5078150;28;20220;-65
2022/04/03 02:48:03;;;;;;;1.38;1.27;;;;;;;;;;5078161;28;20244;-65
2022/04/03 02:50:30;;;;;;;1.52;1.30;;;;;;;;;;5078265;28;20185;-65
2022/04/03 02:52:58;;;;;;;1.30;1.20;;;;;;;;;;5076919;28;20233;-65
2022/04/03 02:55:25;;;;;;;1.95;1.30;;;;;;;;;;5077143;28;20201;-65
2022/04/03 02:57:52;;;;;;;1.40;1.30;;;;;;;;;;5076938;28;20228;-65
2022/04/03 03:00:19;;;;;;;1.30;1.20;;;;;;;;;;5076890;28;20197;-65
2022/04/03 03:02:47;;;;;;;1.45;1.30;;;;;;;;;;5077818;28;20196;-65
2022/04/03 03:05:14;;;;;;;1.42;1.20;;;;;;;;;;5076866;28;20528;-65
2022/04/03 03:07:42;;;;;;;2.13;1.60;;;;;;;;;;5076449;28;20540;-65
2022/04/03 03:10:13;;;;;;;1.70;1.40;;;;;;;;;;5078167;28;20217;-65
2022/04/03 03:12:40;;;;;;;1.58;1.48;;;;;;;;;;5076703;28;20205;-65
2022/04/03 03:15:07;;;;;;;1.38;1.25;;;;;;;;;;5076438;28;20233;-65
2022/04/03 03:17:34;;;;;;;1.70;1.60;;;;;;;;;;5077714;28;20220;-65
2022/04/03 03:20:00;;;;;;;2.20;1.40;;;;;;;;;;5076575;28;20197;-65
2022/04/03 03:22:27;;;;;;;1.55;1.40;;;;;;;;;;5077159;28;20217;-65
2022/04/03 03:24:54;;;;;;;1.63;1.45;;;;;;;;;;5077665;28;20276;-66
2022/04/03 03:27:22;;;;;;;2.00;1.70;;;;;;;;;;5076215;28;20258;-66
2022/04/03 03:29:49;;;;;;;2.13;1.40;;;;;;;;;;5075792;28;20204;-66
2022/04/03 03:32:15;;;;;;;1.90;1.30;;;;;;;;;;5075753;28;20526;-66
2022/04/03 03:34:42;;;;;;;1.85;1.35;;;;;;;;;;5077008;28;20634;-66
2022/04/03 03:37:09;;;;;;;1.05;1.05;;;;;;;;;;5076740;28;20232;-66
2022/04/03 03:39:36;;;;;;;1.60;1.30;;;;;;;;;;5076310;28;20197;-66
2022/04/03 03:42:02;;;;;;;1.38;1.27;;;;;;;;;;5076059;28;20248;-66
2022/04/03 03:44:30;;;;;;;1.45;1.35;;;;;;;;;;5076247;28;20212;-65
2022/04/03 03:46:57;;;;;;;1.20;1.10;;;;;;;;;;5076929;28;20193;-66
2022/04/03 03:49:24;;;;;;;1.30;1.20;;;;;;;;;;5076500;28;20217;-65
2022/04/03 03:51:50;;;;;;;1.10;1.10;;;;;;;;;;5076277;28;20250;-66
2022/04/03 03:54:17;;;;;;;1.20;1.00;;;;;;;;;;5076950;28;20189;-65
2022/04/03 03:56:44;;;;;;;1.88;1.20;;;;;;;;;;5076922;28;20228;-65
2022/04/03 03:59:11;;;;;;;1.23;1.15;;;;;;;;;;5076806;28;20185;-65
2022/04/03 04:01:39;;;;;;;1.50;1.40;;;;;;;;;;5075459;28;20307;-65
2022/04/03 04:04:05;;;;;;;1.10;1.00;;;;;;;;;;5076692;28;20185;-65
2022/04/03 04:06:32;;;;;;;1.48;1.10;;;;;;;;;;5076048;28;20295;-65
2022/04/03 04:08:59;;;;;;;1.05;1.00;;;;;;;;;;5076628;28;20189;-65
2022/04/03 04:11:26;;;;;;;0.98;0.98;;;;;;;;;;5075649;28;20232;-65
2022/04/03 04:13:52;;;;;;;0.90;0.90;;;;;;;;;;5076183;28;20516;-65
2022/04/03 04:16:19;;;;;;;0.93;0.93;;;;;;;;;;5076115;28;20190;-65
2022/04/03 04:18:47;;;;;;;0.90;0.90;;;;;;;;;;5075397;28;20262;-65
2022/04/03 04:21:15;;;;;;;0.90;0.90;;;;;;;;;;5075643;28;20315;-65
2022/04/03 04:23:42;;;;;;;1.20;1.10;;;;;;;;;;5075279;28;20204;-65
2022/04/03 04:26:08;;;;;;;0.98;0.98;;;;;;;;;;5075977;28;20181;-65
2022/04/03 04:28:35;;;;;;;1.70;1.60;;;;;;;;;;5076261;28;20228;-65
2022/04/03 04:31:02;;;;;;;1.50;1.08;;;;;;;;;;5075002;28;20204;-65
2022/04/03 04:33:28;;;;;;;0.90;0.90;;;;;;;;;;5075913;28;20216;-65
2022/04/03 04:35:56;;;;;;;1.40;0.90;;;;;;;;;;5075601;28;20232;-65
2022/04/03 04:38:23;;;;;;;0.90;0.90;;;;;;;;;;5076011;28;20182;-65
2022/04/03 04:40:49;;;;;;;1.10;1.10;;;;;;;;;;5074548;28;20888;-65
2022/04/03 04:43:16;;;;;;;1.20;1.00;;;;;;;;;;5073892;28;20523;-65
2022/04/03 04:45:43;;;;;;;1.42;1.33;;;;;;;;;;5074894;28;20201;-65
2022/04/03 04:48:09;;;;;;;0.90;0.90;;;;;;;;;;5075145;28;20205;-65
2022/04/03 04:50:36;;;;;;;1.10;1.10;;;;;;;;;;5075543;28;20476;-65
2022/04/03 04:53:04;;;;;;;1.35;1.25;;;;;;;;;;5075057;28;20270;-65
2022/04/03 04:55:31;;;;;;;0.90;0.90;;;;;;;;;;5074894;28;20189;-65
2022/04/03 04:57:58;;;;;;;1.10;1.10;;;;;;;;;;5074708;28;20282;-65
2022/04/03 05:00:26;;;;;;;1.08;1.02;;;;;;;;;;5075322;28;20621;-65
2022/04/03 05:02:52;;;;;;;1.15;1.05;;;;;;;;;;5074984;28;20240;-65
2022/04/03 05:05:20;;;;;;;1.30;0.98;;;;;;;;;;5075525;28;20193;-65
2022/04/03 05:07:47;;;;;;;1.77;1.13;;;;;;;;;;5074584;28;20201;-65
2022/04/03 05:10:16;;;;;;;1.23;1.10;;;;;;;;;;5075535;28;20224;-65
2022/04/03 05:12:43;;;;;;;1.40;1.30;;;;;;;;;;5074639;28;20243;-65
2022/04/03 05:15:11;;;;;;;1.27;0.95;;;;;;;;;;5074595;28;20220;-65
2022/04/03 05:17:38;;;;;;;1.75;1.10;;;;;;;;;;5075400;28;20185;-65
2022/04/03 05:20:05;;;;;;;0.95;0.90;;;;;;;;;;5075367;28;20196;-65
2022/04/03 05:22:32;;;;;;;1.30;1.20;;;;;;;;;;5075294;28;20236;-65
2022/04/03 05:24:58;;;;;;;1.88;1.50;;;;;;;;;;5074811;28;20205;-65
2022/04/03 05:27:26;;;;;;;1.70;1.30;;;;;;;;;;5074858;28;20204;-65
2022/04/03 05:29:54;;;;;;;1.30;1.20;;;;;;;;;;5074344;28;20200;-65
2022/04/03 05:32:25;;;;;;;1.23;1.13;;;;;;;;;;5074948;28;20651;-65
2022/04/03 05:34:52;;;;;;;1.02;1.02;;;;;;;;;;5074010;28;20262;-65
2022/04/03 05:37:19;;;;;;;1.25;1.15;;;;;;;;;;5075482;28;20201;-65
2022/04/03 05:39:46;;;;;;;2.35;2.10;;;;;;;;;;5075141;28;20254;-65
2022/04/03 05:42:12;;;;;;;1.20;1.10;;;;;;;;;;5074114;28;20348;-65
2022/04/03 05:44:40;;;;;;;1.23;1.10;;;;;;;;;;5075045;28;20216;-65
2022/04/03 05:47:07;;;;;;;1.58;1.00;;;;;;;;;;5073701;28;20201;-65
2022/04/03 05:49:34;;;;;;;1.00;1.00;;;;;;;;;;5074772;28;20224;-65
2022/04/03 05:52:01;;;;;;;1.10;1.00;;;;;;;;;;5074619;28;20204;-65
2022/04/03 05:54:28;;;;;;;1.98;1.15;;;;;;;;;;5079359;28;20189;-66
2022/04/03 05:56:55;;;;;;;1.63;1.20;;;;;;;;;;5078716;28;20181;-65
2022/04/03 05:59:22;;;;;;;1.48;1.38;;;;;;;;;;5078245;28;20211;-65
2022/04/03 06:01:50;;;;;;;1.10;1.00;;;;;;;;;;5077976;28;20217;-65
2022/04/03 06:04:17;;;;;;;1.67;1.58;;;;;;;;;;5078172;28;20292;-65
2022/04/03 06:06:43;;;;;;;1.30;1.20;;;;;;;;;;5077737;28;20200;-65
2022/04/03 06:09:10;;;;;;;1.25;1.15;;;;;;;;;;5078249;28;20189;-65
2022/04/03 06:11:36;;;;;;;2.35;1.40;;;;;;;;;;5078849;28;20185;-65
2022/04/03 06:14:03;;;;;;;1.70;1.60;;;;;;;;;;5077995;28;20236;-65
2022/04/03 06:16:30;;;;;;;2.40;1.83;;;;;;;;;;5078847;28;20220;-65
2022/04/03 06:18:58;;;;;;;2.03;1.80;;;;;;;;;;5078373;28;20552;-65
2022/04/03 06:21:25;;;;;;;1.25;1.13;;;;;;;;;;5078581;28;20192;-65
2022/04/03 06:23:51;;;;;;;1.50;1.40;;;;;;;;;;5077307;28;20204;-65
2022/04/03 06:26:18;;;;;;;1.30;1.20;;;;;;;;;;5078557;28;20200;-65
2022/04/03 06:28:45;;;;;;;1.20;1.10;;;;;;;;;;5078751;28;20236;-66
2022/04/03 06:31:12;;;;;;;1.58;1.48;;;;;;;;;;5077402;28;20209;-66
2022/04/03 06:33:38;;;;;;;1.00;1.00;;;;;;;;;;5078468;28;20181;-66
2022/04/03 06:36:07;;;;;;;1.65;1.55;;;;;;;;;;5076923;28;20298;-67
2022/04/03 06:38:34;;;;;;;1.60;1.50;;;;;;;;;;5077992;28;20227;-67
2022/04/03 06:41:00;;;;;;;1.38;1.20;;;;;;;;;;5078635;28;20224;-67
2022/04/03 06:43:28;;;;;;;1.13;1.02;;;;;;;;;;5077515;28;20201;-66
2022/04/03 06:45:55;;;;;;;1.23;1.13;;;;;;;;;;5077155;28;20229;-66
2022/04/03 06:48:22;;;;;;;1.48;1.30;;;;;;;;;;5077602;28;20243;-66
2022/04/03 06:50:49;;;;;;;1.90;1.08;;;;;;;;;;5077443;28;20213;-66
2022/04/03 06:53:17;;;;;;;1.77;1.10;;;;;;;;;;5077792;28;20209;-66
2022/04/03 06:55:43;;;;;;;1.20;1.10;;;;;;;;;;5078391;28;20196;-66
2022/04/03 06:58:10;;;;;;;1.42;1.30;;;;;;;;;;5078451;28;20264;-66
2022/04/03 07:00:38;;;;;;;2.20;1.65;;;;;;;;;;5078593;28;20242;-66
2022/04/03 07:03:05;;;;;;;1.95;1.33;;;;;;;;;;5077867;28;20471;-66
2022/04/03 07:05:31;;;;;;;2.35;1.42;;;;;;;;;;5077135;28;20189;-66
2022/04/03 07:07:58;;;;;;;2.08;1.38;;;;;;;;;;5077817;28;20232;-66
2022/04/03 07:10:26;;;;;;;3.78;2.20;;;;;;;;;;5077693;28;20196;-66
2022/04/03 07:12:55;;;;;;;2.05;1.48;;;;;;;;;;5077397;28;20276;-66
2022/04/03 07:15:21;;;;;;;1.92;1.48;;;;;;;;;;5077622;28;20189;-69
2022/04/03 07:17:48;;;;;;;2.22;1.55;;;;;;;;;;5076454;28;20432;-68
2022/04/03 07:20:14;;;;;;;1.80;1.60;;;;;;;;;;5076498;28;20535;-64
2022/04/03 07:22:41;;;;;;;3.17;1.77;;;;;;;;;;5076660;28;20217;-65
2022/04/03 07:25:08;;;;;;;1.40;1.30;;;;;;;;;;5076601;28;20186;-64
2022/04/03 07:27:37;;;;;;;1.63;1.50;;;;;;;;;;5076629;28;20197;-64
2022/04/03 07:30:04;;;;;;;1.75;1.40;;;;;;;;;;5076397;28;20193;-64
2022/04/03 07:32:31;;;;;;;1.38;1.27;;;;;;;;;;5076424;28;20586;-64
2022/04/03 07:34:58;;;;;;;1.13;1.00;;;;;;;;;;5076184;28;20254;-64
2022/04/03 07:37:24;;;;;;;1.10;1.00;;;;;;;;;;5076452;28;20242;-65
2022/04/03 07:39:51;;;;;;;1.30;1.20;;;;;;;;;;5077107;28;20502;-64
2022/04/03 07:42:18;;;;;;;0.90;0.90;;;;;;;;;;5076530;28;20213;-64
2022/04/03 07:44:46;;;;;;;1.00;1.00;;;;;;;;;;5076109;28;20701;-64
2022/04/03 07:47:14;;;;;;;1.08;1.00;;;;;;;;;;5077040;28;20189;-64
2022/04/03 07:49:41;;;;;;;1.10;0.98;;;;;;;;;;5076663;28;20291;-64
2022/04/03 07:52:08;;;;;;;0.88;0.88;;;;;;;;;;5076998;28;20227;-64
2022/04/03 07:54:35;;;;;;;0.77;0.77;;;;;;;;;;5076881;28;20262;-65
2022/04/03 07:57:01;;;;;;;1.45;1.10;;;;;;;;;;5075622;28;20197;-64
2022/04/03 07:59:28;;;;;;;1.55;1.45;;;;;;;;;;5075795;28;20229;-64
2022/04/03 08:01:56;;;;;;;2.55;1.30;;;;;;;;;;5076319;28;20220;-64
2022/04/03 08:04:23;;;;;;;1.50;1.10;;;;;;;;;;5076791;28;20193;-64
2022/04/03 08:06:49;;;;;;;1.77;1.67;;;;;;;;;;5076170;28;20232;-64
2022/04/03 08:09:16;;;;;;;1.33;1.17;;;;;;;;;;5075796;28;20243;-63
2022/04/03 08:11:43;;;;;;;1.50;1.30;;;;;;;;;;5076224;28;20524;-63
2022/04/03 08:14:09;;;;;;;3.05;1.17;;;;;;;;;;5076581;28;20192;-64
2022/04/03 08:16:36;;;;;;;1.20;0.80;;;;;;;;;;5074162;28;20203;-64
2022/04/03 08:19:06;;;;;;;0.68;0.68;;;;;;;;;;5075554;28;20216;-64
2022/04/03 08:21:32;;;;;;;0.90;0.90;;;;;;;;;;5076135;28;20185;-65
2022/04/03 08:23:59;;;;;;;1.98;1.80;;;;;;;;;;5076254;28;20247;-64
2022/04/03 08:26:26;;;;;;;1.30;1.20;;;;;;;;;;5075625;28;20212;-64
2022/04/03 08:28:53;;;;;;;0.95;0.95;;;;;;;;;;5076247;28;20290;-64
2022/04/03 08:31:20;;;;;;;2.20;0.88;;;;;;;;;;5075223;28;20207;-64
2022/04/03 08:33:47;;;;;;;1.00;1.00;;;;;;;;;;5075992;28;20288;-64
2022/04/03 08:36:16;;;;;;;1.35;1.25;;;;;;;;;;5074912;28;20232;-64
2022/04/03 08:38:42;;;;;;;1.13;1.05;;;;;;;;;;5075766;28;20181;-64
2022/04/03 08:41:09;;;;;;;1.30;1.20;;;;;;;;;;5076086;28;20212;-65
2022/04/03 08:43:36;;;;;;;1.05;1.00;;;;;;;;;;5075982;28;20232;-64
2022/04/03 08:46:05;;;;;;;1.27;1.00;;;;;;;;;;5075495;28;20219;-64
2022/04/03 08:48:33;;;;;;;1.25;1.15;;;;;;;;;;5074648;28;20640;-65
2022/04/03 08:51:02;;;;;;;0.70;0.70;;;;;;;;;;5075919;28;20212;-64
2022/04/03 08:53:30;;;;;;;1.27;1.17;;;;;;;;;;5074566;28;20497;-73
2022/04/03 08:55:57;;;;;;;0.95;0.90;;;;;;;;;;5074835;28;20219;-68
2022/04/03 08:58:24;;;;;;;1.00;1.00;;;;;;;;;;5074905;28;20209;-68
2022/04/03 09:00:50;;;;;;;0.90;0.90;;;;;;;;;;5075232;28;20223;-69
2022/04/03 09:03:17;;;;;;;0.90;0.90;;;;;;;;;;5075706;28;20603;-69
2022/04/03 09:05:44;;;;;;;1.00;1.00;;;;;;;;;;5075351;28;20193;-69
2022/04/03 09:08:13;;;;;;;1.15;1.00;;;;;;;;;;5074580;28;20201;-69
2022/04/03 09:10:42;;;;;;;1.10;1.00;;;;;;;;;;5075291;28;20181;-68
2022/04/03 09:13:08;;;;;;;1.27;1.17;;;;;;;;;;5075451;28;20235;-68
2022/04/03 09:15:35;;;;;;;1.00;1.00;;;;;;;;;;5074673;28;20224;-68
2022/04/03 09:18:02;;;;;;;1.00;1.00;;;;;;;;;;5075117;28;20200;-68
2022/04/03 09:20:31;;;;;;;0.80;0.80;;;;;;;;;;5075621;28;20196;-68
2022/04/03 09:22:59;;;;;;;2.20;1.30;;;;;;;;;;5074955;28;20228;-68
2022/04/03 09:25:26;;;;;;;1.48;1.30;;;;;;;;;;5075042;28;20201;-68
2022/04/03 09:27:55;;;;;;;2.40;1.95;;;;;;;;;;5074884;28;20206;-68
2022/04/03 09:30:23;;;;;;;1.70;1.60;;;;;;;;;;5074366;28;20600;-68
2022/04/03 09:32:50;;;;;;;2.47;1.20;;;;;;;;;;5073993;28;20204;-68
2022/04/03 09:35:17;;;;;;;0.90;0.90;;;;;;;;;;5074732;28;20240;-68
2022/04/03 09:38:04;;;;;;;0.80;0.80;;;;;;;;;;5075128;28;20277;-68
2022/04/03 09:40:31;;;;;;;1.10;1.10;;;;;;;;;;5074278;28;20197;-68
2022/04/03 09:43:12;;;;;;;1.15;1.05;;;;;;;;;;5075167;28;20243;-68
2022/04/03 09:45:43;;;;;;;1.02;1.00;;;;;;;;;;5074241;28;20229;-68
2022/04/03 09:48:18;;;;;;;1.65;1.55;;;;;;;;;;5075587;28;20194;-68
2022/04/03 09:50:54;;;;;;;1.63;1.50;;;;;;;;;;5074859;28;20188;-68
2022/04/03 09:53:21;;;;;;;1.25;1.10;;;;;;;;;;5075182;28;20192;-68
2022/04/03 09:55:48;;;;;;;1.13;1.02;;;;;;;;;;5075133;28;20199;-67
2022/04/03 09:58:16;;;;;;;1.17;1.10;;;;;;;;;;5074512;28;20258;-67
2022/04/03 10:00:44;;;;;;;1.13;1.02;;;;;;;;;;5074117;28;20207;-68
2022/04/03 10:03:12;;;;;;;1.17;0.82;;;;;;;;;;5074285;28;20270;-68
2022/04/03 10:05:38;;;;;;;1.75;1.00;;;;;;;;;;5073715;28;20204;-67
2022/04/03 10:08:06;;;;;;;1.70;1.23;;;;;;;;;;5074592;28;20200;-67
2022/04/03 10:10:34;;;;;;;1.95;1.75;;;;;;;;;;5075153;28;20201;-68
2022/04/03 10:13:01;;;;;;;3.03;2.00;;;;;;;;;;5074859;28;20264;-68
2022/04/03 10:15:30;;;;;;;2.20;1.85;;;;;;;;;;5073974;28;20197;-68
2022/04/03 10:17:56;;;;;;;1.63;1.52;;;;;;;;;;5074762;28;20601;-68
2022/04/03 10:20:25;;;;;;;2.60;2.17;;;;;;;;;;5074271;28;20198;-68
2022/04/03 10:22:54;;;;;;;1.88;1.77;;;;;;;;;;5074549;28;20182;-68
2022/04/03 10:25:27;;;;;;;1.88;1.77;;;;;;;;;;5073879;28;20193;-70
2022/04/03 10:27:56;;;;;;;3.08;1.90;;;;;;;;;;5073921;28;20204;-67
2022/04/03 10:30:33;;;;;;;1.95;1.80;;;;;;;;;;5074550;28;20213;-65
2022/04/03 10:33:02;;;;;;;2.05;1.90;;;;;;;;;;5073833;28;20250;-65
2022/04/03 10:35:28;;;;;;;2.50;1.80;;;;;;;;;;5074337;28;20241;-65
2022/04/03 10:38:03;;;;;;;2.35;2.00;;;;;;;;;;5073589;28;20205;-65
2022/04/03 10:40:32;;;;;;;1.80;1.70;;;;;;;;;;5077428;28;20200;-65
2022/04/03 10:43:01;;;;;;;2.13;1.63;;;;;;;;;;5077874;28;20284;-65
2022/04/03 10:45:28;;;;;;;1.80;1.70;;;;;;;;;;5077574;28;20193;-65
2022/04/03 10:48:09;;;;;;;1.67;1.58;;;;;;;;;;5078149;28;20182;-65
2022/04/03 10:50:55;;;;;;;1.80;1.70;;;;;;;;;;5061793;28;20236;-65
2022/04/03 10:53:24;;;;;;;2.80;1.67;;;;;;;;;;5077428;28;20197;-65
2022/04/03 10:55:54;;;;;;;1.90;1.80;;;;;;;;;;5077040;28;20197;-65
2022/04/03 10:58:21;;;;;;;1.73;1.63;;;;;;;;;;5077717;28;20240;-65
2022/04/03 11:00:49;;;;;;;2.00;1.90;;;;;;;;;;5078134;28;20191;-65
2022/04/03 11:03:35;;;;;;;1.88;1.77;;;;;;;;;;5077081;28;20212;-65
2022/04/03 11:06:21;;;;;;;1.73;1.63;;;;;;;;;;5077861;28;20181;-65
2022/04/03 11:08:57;;;;;;;1.75;1.65;;;;;;;;;;5077467;28;20221;-65
2022/04/03 11:11:34;;;;;;;2.00;1.50;;;;;;;;;;5077798;28;20201;-65
2022/04/03 11:14:01;;;;;;;1.40;1.27;;;;;;;;;;5077778;28;20236;-67
2022/04/03 11:16:28;;;;;;;2.25;1.40;;;;;;;;;;5077033;28;20212;-66
2022/04/03 11:18:55;;;;;;;2.15;2.05;;;;;;;;;;5077649;28;20185;-66
2022/04/03 11:21:22;;;;;;;2.40;2.20;;;;;;;;;;5077564;28;20221;-66
2022/04/03 11:23:50;;;;;;;2.70;2.47;;;;;;;;;;5076532;28;20284;-66
2022/04/03 11:26:18;;;;;;;3.00;2.70;;;;;;;;;;5077072;28;20212;-66
2022/04/03 11:28:45;;;;;;;2.70;2.50;;;;;;;;;;5076465;28;20197;-66
2022/04/03 11:31:12;;;;;;;2.78;2.58;;;;;;;;;;5076216;28;20200;-66
2022/04/03 11:33:40;;;;;;;2.65;2.45;;;;;;;;;;5077028;28;20655;-66
2022/04/03 11:36:08;;;;;;;2.60;2.40;;;;;;;;;;5075845;28;20244;-66
2022/04/03 11:38:35;;;;;;;3.20;2.83;;;;;;;;;;5076952;28;20229;-66
2022/04/03 11:41:03;;;;;;;3.00;2.80;;;;;;;;;;5077387;28;20211;-66
2022/04/03 11:43:31;;;;;;;3.58;2.70;;;;;;;;;;5075912;28;20305;-66
2022/04/03 11:45:59;;;;;;;3.33;3.13;;;;;;;;;;5077290;28;20637;-67
2022/04/03 11:48:26;;;;;;;3.20;3.00;;;;;;;;;;5077343;28;20223;-66
2022/04/03 11:51:04;;;;;;;4.03;3.42;;;;;;;;;;5076822;28;20181;-66
2022/04/03 11:53:31;;;;;;;3.20;3.00;;;;;;;;;;5076354;28;20235;-67
2022/04/03 11:56:04;;;;;;;4.13;3.53;;;;;;;;;;5076885;28;20189;-67
2022/04/03 11:58:33;;;;;;;3.67;3.30;;;;;;;;;;5076103;28;20540;-66
2022/04/03 12:00:59;;;;;;;3.17;2.97;;;;;;;;;;5076854;28;20189;-66
2022/04/03 12:03:27;;;;;;;3.13;2.88;;;;;;;;;;5075883;28;20257;-66
2022/04/03 12:06:08;;;;;;;4.15;3.85;;;;;;;;;;5075729;28;20631;-66
2022/04/03 12:08:37;;;;;;;3.50;3.30;;;;;;;;;;5076401;28;20217;-66
2022/04/03 12:11:15;;;;;;;3.03;2.83;;;;;;;;;;5075865;28;20541;-66
2022/04/03 12:13:43;;;;;;;3.42;3.22;;;;;;;;;;5075329;28;20199;-66
2022/04/03 12:16:09;;;;;;;4.43;4.03;;;;;;;;;;5075555;28;20217;-66
2022/04/03 12:18:47;;;;;;;3.58;3.08;;;;;;;;;;5076076;28;20233;-66
2022/04/03 12:21:14;;;;;;;2.83;2.63;;;;;;;;;;5075477;28;20197;-66
2022/04/03 12:24:01;;;;;;;2.63;2.42;;;;;;;;;;5076321;28;20201;-66
2022/04/03 12:26:28;;;;;;;3.10;2.90;;;;;;;;;;5075054;28;20633;-66
2022/04/03 12:28:57;;;;;;;3.60;3.25;;;;;;;;;;5074990;28;20617;-66
2022/04/03 12:31:26;;;;;;;3.80;3.50;;;;;;;;;;5074967;28;20629;-66
2022/04/03 12:34:03;;;;;;;4.53;4.13;;;;;;;;;;5076216;28;20181;-66
2022/04/03 12:36:35;;;;;;;4.35;4.00;;;;;;;;;;5075663;28;20236;-66
2022/04/03 12:39:02;;;;;;;3.65;3.20;;;;;;;;;;5075833;28;20209;-66
2022/04/03 12:41:29;;;;;;;3.55;3.28;;;;;;;;;;5075169;28;20201;-66
2022/04/03 12:43:58;;;;;;;3.90;3.60;;;;;;;;;;5074634;28;20213;-67
2022/04/03 12:46:25;;;;;;;3.60;3.30;;;;;;;;;;5075068;28;20635;-67
2022/04/03 12:48:52;;;;;;;3.70;3.50;;;;;;;;;;5075987;28;20212;-67
2022/04/03 12:51:18;;;;;;;3.90;3.60;;;;;;;;;;5074972;28;20520;-67
2022/04/03 12:53:51;;;;;;;3.90;3.60;;;;;;;;;;5074970;28;20197;-67
2022/04/03 12:56:18;;;;;;;3.45;3.22;;;;;;;;;;5074880;28;20204;-67
2022/04/03 12:58:49;;;;;;;3.45;3.15;;;;;;;;;;5075264;28;20205;-67
2022/04/03 13:01:18;;;;;;;4.35;3.50;;;;;;;;;;5074758;28;20279;-67
2022/04/03 13:03:45;;;;;;;3.70;3.40;;;;;;;;;;5074846;28;20216;-67
2022/04/03 13:06:14;;;;;;;4.22;3.92;;;;;;;;;;5075539;28;20554;-67
2022/04/03 13:08:41;;;;;;;4.47;4.18;;;;;;;;;;5075548;28;20197;-67
2022/04/03 13:11:08;;;;;;;4.50;4.20;;;;;;;;;;5075220;28;20185;-67
2022/04/03 13:13:35;;;;;;;4.22;3.92;;;;;;;;;;5074646;28;20231;-67
2022/04/03 13:16:02;;;;;;;5.03;4.30;;;;;;;;;;5074332;28;20225;-67
2022/04/03 13:18:30;;;;;;;4.50;4.10;;;;;;;;;;5074864;28;20224;-66
2022/04/03 13:20:58;;;;;;;4.65;4.22;;;;;;;;;;5075160;28;20272;-66
2022/04/03 13:23:25;;;;;;;4.38;4.00;;;;;;;;;;5075315;28;20211;-66
2022/04/03 13:25:52;;;;;;;4.68;4.38;;;;;;;;;;5073940;28;20220;-66
2022/04/03 13:28:19;;;;;;;5.10;4.70;;;;;;;;;;5074966;28;20227;-67
2022/04/03 13:30:47;;;;;;;4.72;4.32;;;;;;;;;;5074781;28;20212;-66
2022/04/03 13:33:14;;;;;;;4.70;4.40;;;;;;;;;;5075294;28;20209;-66
2022/04/03 13:35:42;;;;;;;4.03;3.72;;;;;;;;;;5075143;28;20229;-66
2022/04/03 13:38:09;;;;;;;4.30;4.00;;;;;;;;;;5074278;28;20200;-66
2022/04/03 13:40:37;;;;;;;4.30;3.90;;;;;;;;;;5074817;28;20530;-66
2022/04/03 13:43:06;;;;;;;4.10;3.70;;;;;;;;;;5075193;28;20220;-66
2022/04/03 13:48:17;;;;;;;4.57;4.28;;;;;;;;;;5074958;28;20173;-66
2022/04/03 13:50:45;;;;;;;4.57;4.28;;;;;;;;;;5074366;28;20200;-66
2022/04/03 13:53:11;;;;;;;5.07;4.68;;;;;;;;;;5074958;28;20201;-66
2022/04/03 13:55:38;;;;;;;4.53;4.22;;;;;;;;;;5074793;28;20185;-66
2022/04/03 13:58:05;;;;;;;4.75;4.35;;;;;;;;;;5074731;28;20220;-66
2022/04/03 14:00:31;;;;;;;5.20;4.80;;;;;;;;;;5074822;28;20197;-66
2022/04/03 14:02:58;;;;;;;5.00;4.70;;;;;;;;;;5074931;28;20272;-66
2022/04/03 14:05:25;;;;;;;6.40;5.80;;;;;;;;;;5074552;28;20291;-66
2022/04/03 14:07:52;;;;;;;5.45;5.13;;;;;;;;;;5074548;28;20189;-65
2022/04/03 14:10:19;;;;;;;5.70;5.30;;;;;;;;;;5074883;28;20199;-65
2022/04/03 14:12:46;;;;;;;6.75;6.25;;;;;;;;;;5074147;28;20431;-65
2022/04/03 14:15:13;;;;;;;6.05;5.55;;;;;;;;;;5078046;28;20197;-65
2022/04/03 14:17:40;;;;;;;5.93;5.53;;;;;;;;;;5078694;28;20211;-65
2022/04/03 14:20:09;;;;;;;6.82;6.20;;;;;;;;;;5078661;28;20186;-65
2022/04/03 14:22:35;;;;;;;6.28;5.78;;;;;;;;;;5078315;28;20190;-65
2022/04/03 14:25:05;;;;;;;6.40;6.00;;;;;;;;;;5077934;28;20550;-65
2022/04/03 14:27:32;;;;;;;6.55;6.05;;;;;;;;;;5077580;28;20196;-66
2022/04/03 14:29:58;;;;;;;6.38;5.88;;;;;;;;;;5077223;28;20227;-66
2022/04/03 14:32:25;;;;;;;6.18;5.68;;;;;;;;;;5078472;28;20200;-65
2022/04/03 14:34:51;;;;;;;6.03;5.53;;;;;;;;;;5077778;28;20213;-65
2022/04/03 14:37:18;;;;;;;5.78;5.38;;;;;;;;;;5078380;28;20270;-65
2022/04/03 14:39:45;;;;;;;6.25;5.65;;;;;;;;;;5077086;28;20201;-65
2022/04/03 14:42:13;;;;;;;5.82;5.43;;;;;;;;;;5077303;28;20236;-65
2022/04/03 14:44:39;;;;;;;5.20;4.90;;;;;;;;;;5077339;28;20248;-66
2022/04/03 14:47:06;;;;;;;5.28;4.88;;;;;;;;;;5078224;28;20203;-67
2022/04/03 14:49:33;;;;;;;5.70;5.22;;;;;;;;;;5076300;28;20435;-66